sensor_id;sensor_type;location;lat;lon;timestamp;pressure;altitude;pressure_sealevel;temperature;humidity
56825;BME280;42705;50.326;18.772;2023-08-24T00:04:43;98706.40;;;20.03;53.13
56825;BME280;42705;50.326;18.772;2023-08-24T00:10:04;98705.46;;;19.96;53.35
56825;BME280;42705;50.326;18.772;2023-08-24T00:15:26;98701.77;;;19.90;53.68
56825;BME280;42705;50.326;18.772;2023-08-24T00:20:48;98699.83;;;19.90;54.02
56825;BME280;42705;50.326;18.772;2023-08-24T00:26:09;98704.02;;;19.92;54.16
56825;BME280;42705;50.326;18.772;2023-08-24T00:31:31;98700.91;;;19.90;54.34
56825;BME280;42705;50.326;18.772;2023-08-24T00:36:53;98701.07;;;19.87;54.29
56825;BME280;42705;50.326;18.772;2023-08-24T00:42:15;98695.16;;;19.84;54.48
56825;BME280;42705;50.326;18.772;2023-08-24T00:47:37;98700.74;;;19.80;54.57
56825;BME280;42705;50.326;18.772;2023-08-24T00:53:00;98700.48;;;19.75;54.81
56825;BME280;42705;50.326;18.772;2023-08-24T00:58:22;98700.91;;;19.69;54.88
56825;BME280;42705;50.326;18.772;2023-08-24T01:03:44;98703.10;;;19.61;55.00
56825;BME280;42705;50.326;18.772;2023-08-24T01:09:06;98701.98;;;19.53;55.12
56825;BME280;42705;50.326;18.772;2023-08-24T01:15:01;98705.08;;;19.44;55.24
56825;BME280;42705;50.326;18.772;2023-08-24T01:20:18;98707.81;;;19.36;55.34
56825;BME280;42705;50.326;18.772;2023-08-24T01:25:48;98705.23;;;19.37;55.59
56825;BME280;42705;50.326;18.772;2023-08-24T01:31:15;98704.88;;;19.37;55.70
56825;BME280;42705;50.326;18.772;2023-08-24T01:36:37;98702.20;;;19.35;55.81
56825;BME280;42705;50.326;18.772;2023-08-24T01:42:02;98699.35;;;19.31;55.84
56825;BME280;42705;50.326;18.772;2023-08-24T01:47:25;98696.47;;;19.26;56.00
56825;BME280;42705;50.326;18.772;2023-08-24T01:52:49;98697.85;;;19.19;56.08
56825;BME280;42705;50.326;18.772;2023-08-24T01:58:10;98697.38;;;19.13;56.15
56825;BME280;42705;50.326;18.772;2023-08-24T02:03:32;98696.55;;;19.08;56.39
56825;BME280;42705;50.326;18.772;2023-08-24T02:08:53;98696.07;;;19.09;56.59
56825;BME280;42705;50.326;18.772;2023-08-24T02:14:14;98697.14;;;19.10;56.62
56825;BME280;42705;50.326;18.772;2023-08-24T02:19:36;98700.13;;;19.11;56.53
56825;BME280;42705;50.326;18.772;2023-08-24T02:24:57;98697.05;;;19.08;56.63
56825;BME280;42705;50.326;18.772;2023-08-24T02:30:18;98694.50;;;19.02;56.56
56825;BME280;42705;50.326;18.772;2023-08-24T02:35:40;98690.17;;;18.93;56.58
56825;BME280;42705;50.326;18.772;2023-08-24T02:41:06;98692.55;;;18.87;56.64
56825;BME280;42705;50.326;18.772;2023-08-24T02:46:27;98690.02;;;18.78;56.57
56825;BME280;42705;50.326;18.772;2023-08-24T02:51:49;98685.75;;;18.74;56.79
56825;BME280;42705;50.326;18.772;2023-08-24T02:57:10;98680.48;;;18.75;56.92
56825;BME280;42705;50.326;18.772;2023-08-24T03:02:31;98683.48;;;18.78;56.98
56825;BME280;42705;50.326;18.772;2023-08-24T03:07:53;98686.57;;;18.80;57.09
56825;BME280;42705;50.326;18.772;2023-08-24T03:13:15;98691.52;;;18.76;57.17
56825;BME280;42705;50.326;18.772;2023-08-24T03:18:37;98695.28;;;18.70;57.32
56825;BME280;42705;50.326;18.772;2023-08-24T03:23:58;98696.93;;;18.62;57.34
56825;BME280;42705;50.326;18.772;2023-08-24T03:29:20;98694.46;;;18.53;57.49
56825;BME280;42705;50.326;18.772;2023-08-24T03:34:41;98693.89;;;18.46;57.61
56825;BME280;42705;50.326;18.772;2023-08-24T03:40:03;98692.44;;;18.45;57.86
56825;BME280;42705;50.326;18.772;2023-08-24T03:45:25;98698.33;;;18.46;57.99
56825;BME280;42705;50.326;18.772;2023-08-24T03:50:46;98700.61;;;18.44;58.01
56825;BME280;42705;50.326;18.772;2023-08-24T03:56:07;98701.98;;;18.41;58.07
56825;BME280;42705;50.326;18.772;2023-08-24T04:01:29;98701.27;;;18.36;58.13
56825;BME280;42705;50.326;18.772;2023-08-24T04:06:50;98703.79;;;18.31;58.14
56825;BME280;42705;50.326;18.772;2023-08-24T04:12:11;98707.86;;;18.28;58.21
56825;BME280;42705;50.326;18.772;2023-08-24T04:17:32;98702.77;;;18.32;58.49
56825;BME280;42705;50.326;18.772;2023-08-24T04:22:54;98707.34;;;18.35;58.75
56825;BME280;42705;50.326;18.772;2023-08-24T04:28:15;98708.73;;;18.35;58.82
56825;BME280;42705;50.326;18.772;2023-08-24T04:33:36;98714.05;;;18.31;58.95
56825;BME280;42705;50.326;18.772;2023-08-24T04:38:57;98710.54;;;18.27;59.08
56825;BME280;42705;50.326;18.772;2023-08-24T04:44:19;98709.98;;;18.25;59.28
56825;BME280;42705;50.326;18.772;2023-08-24T04:49:40;98710.85;;;18.28;59.46
56825;BME280;42705;50.326;18.772;2023-08-24T04:55:01;98713.35;;;18.32;59.68
56825;BME280;42705;50.326;18.772;2023-08-24T05:00:23;98709.92;;;18.42;59.67
56825;BME280;42705;50.326;18.772;2023-08-24T05:05:45;98713.13;;;18.46;59.73
56825;BME280;42705;50.326;18.772;2023-08-24T05:11:22;98713.38;;;18.52;59.88
56825;BME280;42705;50.326;18.772;2023-08-24T05:16:45;98715.98;;;18.58;60.12
56825;BME280;42705;50.326;18.772;2023-08-24T05:22:06;98719.18;;;18.72;60.36
56825;BME280;42705;50.326;18.772;2023-08-24T05:27:27;98722.30;;;18.92;60.37
56825;BME280;42705;50.326;18.772;2023-08-24T05:32:48;98727.17;;;19.08;60.23
56825;BME280;42705;50.326;18.772;2023-08-24T05:38:09;98730.09;;;19.20;60.10
56825;BME280;42705;50.326;18.772;2023-08-24T05:43:30;98729.94;;;19.30;59.97
56825;BME280;42705;50.326;18.772;2023-08-24T05:48:51;98724.25;;;19.39;59.89
56825;BME280;42705;50.326;18.772;2023-08-24T05:54:12;98726.27;;;19.54;59.96
56825;BME280;42705;50.326;18.772;2023-08-24T05:59:38;98731.71;;;19.70;59.84
56825;BME280;42705;50.326;18.772;2023-08-24T06:04:59;98726.92;;;19.82;59.50
56825;BME280;42705;50.326;18.772;2023-08-24T06:10:20;98718.73;;;19.94;59.42
56825;BME280;42705;50.326;18.772;2023-08-24T06:15:42;98723.14;;;20.05;59.28
56825;BME280;42705;50.326;18.772;2023-08-24T06:21:03;98730.89;;;20.16;58.79
56825;BME280;42705;50.326;18.772;2023-08-24T06:26:24;98734.17;;;20.23;58.51
56825;BME280;42705;50.326;18.772;2023-08-24T06:31:45;98728.93;;;20.30;58.23
56825;BME280;42705;50.326;18.772;2023-08-24T06:37:06;98726.86;;;20.39;57.89
56825;BME280;42705;50.326;18.772;2023-08-24T06:42:28;98729.38;;;20.46;57.58
56825;BME280;42705;50.326;18.772;2023-08-24T06:47:49;98725.32;;;20.54;57.66
56825;BME280;42705;50.326;18.772;2023-08-24T06:53:10;98730.16;;;20.59;57.50
56825;BME280;42705;50.326;18.772;2023-08-24T06:58:31;98728.17;;;20.71;56.83
56825;BME280;42705;50.326;18.772;2023-08-24T07:03:52;98728.58;;;20.86;56.38
56825;BME280;42705;50.326;18.772;2023-08-24T07:09:13;98727.07;;;21.00;56.26
56825;BME280;42705;50.326;18.772;2023-08-24T07:14:36;98726.91;;;21.12;56.13
56825;BME280;42705;50.326;18.772;2023-08-24T07:19:57;98716.77;;;21.22;55.74
56825;BME280;42705;50.326;18.772;2023-08-24T07:25:19;98723.91;;;21.28;55.58
56825;BME280;42705;50.326;18.772;2023-08-24T07:30:41;98731.30;;;21.37;55.48
56825;BME280;42705;50.326;18.772;2023-08-24T07:36:02;98728.96;;;21.47;55.33
56825;BME280;42705;50.326;18.772;2023-08-24T07:41:25;98734.95;;;21.57;55.05
56825;BME280;42705;50.326;18.772;2023-08-24T07:46:49;98735.42;;;21.67;55.03
56825;BME280;42705;50.326;18.772;2023-08-24T07:52:11;98735.73;;;21.77;54.86
56825;BME280;42705;50.326;18.772;2023-08-24T07:57:36;98739.98;;;21.86;54.43
56825;BME280;42705;50.326;18.772;2023-08-24T08:02:58;98736.69;;;21.94;54.10
56825;BME280;42705;50.326;18.772;2023-08-24T08:08:20;98737.45;;;22.04;53.51
56825;BME280;42705;50.326;18.772;2023-08-24T08:13:41;98743.55;;;22.12;52.94
56825;BME280;42705;50.326;18.772;2023-08-24T08:19:02;98745.55;;;22.23;52.78
56825;BME280;42705;50.326;18.772;2023-08-24T08:24:23;98738.41;;;22.34;52.56
56825;BME280;42705;50.326;18.772;2023-08-24T08:29:45;98737.48;;;22.43;51.84
56825;BME280;42705;50.326;18.772;2023-08-24T08:35:07;98740.34;;;22.55;51.69
56825;BME280;42705;50.326;18.772;2023-08-24T08:40:30;98733.20;;;22.66;51.35
56825;BME280;42705;50.326;18.772;2023-08-24T08:45:51;98734.09;;;22.76;50.63
56825;BME280;42705;50.326;18.772;2023-08-24T08:51:16;98737.41;;;22.87;50.56
56825;BME280;42705;50.326;18.772;2023-08-24T08:56:38;98738.96;;;22.98;50.42
56825;BME280;42705;50.326;18.772;2023-08-24T09:02:03;98734.08;;;23.10;49.70
56825;BME280;42705;50.326;18.772;2023-08-24T09:07:24;98734.16;;;23.21;48.52
56825;BME280;42705;50.326;18.772;2023-08-24T09:12:46;98735.13;;;23.31;47.90
56825;BME280;42705;50.326;18.772;2023-08-24T09:18:07;98735.02;;;23.43;47.26
56825;BME280;42705;50.326;18.772;2023-08-24T09:23:29;98736.22;;;23.55;47.06
56825;BME280;42705;50.326;18.772;2023-08-24T09:28:50;98727.57;;;23.65;46.79
56825;BME280;42705;50.326;18.772;2023-08-24T09:34:11;98720.20;;;23.76;46.75
56825;BME280;42705;50.326;18.772;2023-08-24T09:39:33;98716.73;;;23.87;46.62
56825;BME280;42705;50.326;18.772;2023-08-24T09:44:54;98718.94;;;23.98;46.38
56825;BME280;42705;50.326;18.772;2023-08-24T09:50:15;98719.19;;;24.09;45.90
56825;BME280;42705;50.326;18.772;2023-08-24T09:55:37;98711.13;;;24.17;44.73
56825;BME280;42705;50.326;18.772;2023-08-24T10:01:01;98708.14;;;24.27;44.19
56825;BME280;42705;50.326;18.772;2023-08-24T10:06:27;98710.95;;;24.35;43.21
56825;BME280;42705;50.326;18.772;2023-08-24T10:11:57;98706.20;;;24.45;42.42
56825;BME280;42705;50.326;18.772;2023-08-24T10:17:21;98707.93;;;24.58;42.08
56825;BME280;42705;50.326;18.772;2023-08-24T10:22:43;98698.27;;;24.71;41.85
56825;BME280;42705;50.326;18.772;2023-08-24T10:28:05;98695.71;;;24.82;41.79
56825;BME280;42705;50.326;18.772;2023-08-24T10:33:27;98692.82;;;24.91;41.61
56825;BME280;42705;50.326;18.772;2023-08-24T10:38:49;98697.17;;;25.02;41.44
56825;BME280;42705;50.326;18.772;2023-08-24T10:44:44;98691.02;;;25.13;41.28
56825;BME280;42705;50.326;18.772;2023-08-24T10:50:01;98686.20;;;25.29;41.01
56825;BME280;42705;50.326;18.772;2023-08-24T10:55:25;98686.73;;;25.42;40.88
56825;BME280;42705;50.326;18.772;2023-08-24T11:00:48;98671.75;;;25.56;40.38
56825;BME280;42705;50.326;18.772;2023-08-24T11:06:23;98661.37;;;25.69;39.63
56825;BME280;42705;50.326;18.772;2023-08-24T11:11:56;98656.79;;;25.85;39.74
56825;BME280;42705;50.326;18.772;2023-08-24T11:17:19;98652.77;;;26.04;39.42
56825;BME280;42705;50.326;18.772;2023-08-24T11:22:40;98654.10;;;26.23;39.05
56825;BME280;42705;50.326;18.772;2023-08-24T11:28:03;98644.64;;;26.39;38.94
56825;BME280;42705;50.326;18.772;2023-08-24T11:33:28;98643.45;;;26.59;38.75
56825;BME280;42705;50.326;18.772;2023-08-24T11:38:52;98642.39;;;26.81;38.78
56825;BME280;42705;50.326;18.772;2023-08-24T11:44:14;98641.95;;;27.02;38.30
56825;BME280;42705;50.326;18.772;2023-08-24T11:49:35;98638.73;;;27.21;37.71
56825;BME280;42705;50.326;18.772;2023-08-24T11:54:58;98630.90;;;27.38;37.30
56825;BME280;42705;50.326;18.772;2023-08-24T12:00:21;98618.84;;;27.58;37.74
56825;BME280;42705;50.326;18.772;2023-08-24T12:05:42;98617.02;;;27.84;37.36
56825;BME280;42705;50.326;18.772;2023-08-24T12:11:10;98617.77;;;28.03;36.76
56825;BME280;42705;50.326;18.772;2023-08-24T12:16:32;98617.17;;;28.25;36.23
56825;BME280;42705;50.326;18.772;2023-08-24T12:21:53;98612.89;;;28.48;35.66
56825;BME280;42705;50.326;18.772;2023-08-24T12:27:25;98603.90;;;28.72;35.90
56825;BME280;42705;50.326;18.772;2023-08-24T12:32:48;98598.11;;;29.00;35.62
56825;BME280;42705;50.326;18.772;2023-08-24T12:38:11;98590.41;;;29.26;35.02
56825;BME280;42705;50.326;18.772;2023-08-24T12:43:32;98590.31;;;29.58;34.57
56825;BME280;42705;50.326;18.772;2023-08-24T12:48:54;98582.56;;;30.00;33.62
56825;BME280;42705;50.326;18.772;2023-08-24T12:54:15;98584.03;;;30.42;33.28
56825;BME280;42705;50.326;18.772;2023-08-24T12:59:36;98574.40;;;31.47;32.92
56825;BME280;42705;50.326;18.772;2023-08-24T13:04:57;98573.02;;;34.15;30.75
56825;BME280;42705;50.326;18.772;2023-08-24T13:10:23;98549.27;;;38.94;26.57
56825;BME280;42705;50.326;18.772;2023-08-24T13:15:47;98537.48;;;42.48;23.50
56825;BME280;42705;50.326;18.772;2023-08-24T13:21:09;98531.96;;;44.54;21.72
56825;BME280;42705;50.326;18.772;2023-08-24T13:26:30;98524.93;;;48.30;19.46
56825;BME280;42705;50.326;18.772;2023-08-24T13:31:51;98525.16;;;51.14;16.94
56825;BME280;42705;50.326;18.772;2023-08-24T13:37:12;98516.49;;;53.17;14.82
56825;BME280;42705;50.326;18.772;2023-08-24T13:42:34;98510.65;;;54.15;13.83
56825;BME280;42705;50.326;18.772;2023-08-24T13:47:55;98506.02;;;54.50;13.01
56825;BME280;42705;50.326;18.772;2023-08-24T13:53:16;98496.41;;;55.20;12.36
56825;BME280;42705;50.326;18.772;2023-08-24T13:58:38;98488.80;;;55.95;11.54
56825;BME280;42705;50.326;18.772;2023-08-24T14:03:59;98478.60;;;55.74;11.26
56825;BME280;42705;50.326;18.772;2023-08-24T14:09:20;98476.54;;;56.75;10.65
56825;BME280;42705;50.326;18.772;2023-08-24T14:14:41;98479.83;;;56.49;10.54
56825;BME280;42705;50.326;18.772;2023-08-24T14:20:03;98479.37;;;54.12;10.91
56825;BME280;42705;50.326;18.772;2023-08-24T14:25:30;98476.94;;;51.64;11.43
56825;BME280;42705;50.326;18.772;2023-08-24T14:30:51;98481.25;;;49.31;12.27
56825;BME280;42705;50.326;18.772;2023-08-24T14:36:12;98480.78;;;46.97;13.33
56825;BME280;42705;50.326;18.772;2023-08-24T14:41:34;98476.03;;;45.72;13.98
56825;BME280;42705;50.326;18.772;2023-08-24T14:46:55;98479.42;;;45.06;14.59
56825;BME280;42705;50.326;18.772;2023-08-24T14:52:16;98477.00;;;43.13;15.68
56825;BME280;42705;50.326;18.772;2023-08-24T14:57:37;98470.61;;;41.19;17.00
56825;BME280;42705;50.326;18.772;2023-08-24T15:02:58;98457.31;;;39.78;18.02
56825;BME280;42705;50.326;18.772;2023-08-24T15:08:20;98462.55;;;39.66;18.45
56825;BME280;42705;50.326;18.772;2023-08-24T15:13:41;98445.17;;;41.69;17.81
56825;BME280;42705;50.326;18.772;2023-08-24T15:19:02;98440.23;;;43.54;16.91
56825;BME280;42705;50.326;18.772;2023-08-24T15:24:23;98438.66;;;43.35;16.67
56825;BME280;42705;50.326;18.772;2023-08-24T15:29:45;98431.88;;;43.57;16.31
56825;BME280;42705;50.326;18.772;2023-08-24T15:35:06;98437.99;;;43.60;16.52
56825;BME280;42705;50.326;18.772;2023-08-24T15:40:30;98425.36;;;42.16;16.72
56825;BME280;42705;50.326;18.772;2023-08-24T15:45:52;98416.23;;;41.00;17.50
56825;BME280;42705;50.326;18.772;2023-08-24T15:51:13;98420.65;;;41.31;17.34
56825;BME280;42705;50.326;18.772;2023-08-24T15:56:35;98407.95;;;40.81;17.75
56825;BME280;42705;50.326;18.772;2023-08-24T16:01:57;98397.96;;;40.05;18.20
56825;BME280;42705;50.326;18.772;2023-08-24T16:07:18;98394.68;;;40.42;18.15
56825;BME280;42705;50.326;18.772;2023-08-24T16:12:39;98385.98;;;40.91;17.97
56825;BME280;42705;50.326;18.772;2023-08-24T16:18:00;98377.92;;;41.44;18.20
56825;BME280;42705;50.326;18.772;2023-08-24T16:23:21;98372.72;;;41.82;17.72
56825;BME280;42705;50.326;18.772;2023-08-24T16:28:42;98361.13;;;41.93;17.83
56825;BME280;42705;50.326;18.772;2023-08-24T16:34:03;98361.75;;;41.77;18.13
56825;BME280;42705;50.326;18.772;2023-08-24T16:39:25;98364.55;;;41.59;18.67
56825;BME280;42705;50.326;18.772;2023-08-24T16:44:50;98351.77;;;41.24;18.73
56825;BME280;42705;50.326;18.772;2023-08-24T16:50:11;98348.52;;;40.84;18.82
56825;BME280;42705;50.326;18.772;2023-08-24T16:55:32;98348.08;;;40.29;19.07
56825;BME280;42705;50.326;18.772;2023-08-24T17:00:54;98342.43;;;39.47;19.56
56825;BME280;42705;50.326;18.772;2023-08-24T17:06:15;98348.40;;;38.50;20.25
56825;BME280;42705;50.326;18.772;2023-08-24T17:11:37;98349.54;;;37.47;21.19
56825;BME280;42705;50.326;18.772;2023-08-24T17:16:58;98358.33;;;36.46;22.28
56825;BME280;42705;50.326;18.772;2023-08-24T17:22:19;98362.50;;;35.53;23.27
56825;BME280;42705;50.326;18.772;2023-08-24T17:27:40;98358.25;;;34.62;24.30
56825;BME280;42705;50.326;18.772;2023-08-24T17:33:02;98366.46;;;33.75;25.05
56825;BME280;42705;50.326;18.772;2023-08-24T17:38:23;98375.05;;;32.88;25.81
56825;BME280;42705;50.326;18.772;2023-08-24T17:43:44;98374.23;;;32.10;26.95
56825;BME280;42705;50.326;18.772;2023-08-24T17:49:05;98381.85;;;31.39;27.94
56825;BME280;42705;50.326;18.772;2023-08-24T17:54:26;98391.56;;;30.71;28.45
56825;BME280;42705;50.326;18.772;2023-08-24T17:59:47;98404.64;;;30.10;29.37
56825;BME280;42705;50.326;18.772;2023-08-24T18:05:09;98415.48;;;29.52;30.65
56825;BME280;42705;50.326;18.772;2023-08-24T18:10:30;98418.02;;;28.98;31.92
56825;BME280;42705;50.326;18.772;2023-08-24T18:15:51;98423.18;;;28.55;32.84
56825;BME280;42705;50.326;18.772;2023-08-24T18:21:12;98429.02;;;28.15;33.77
56825;BME280;42705;50.326;18.772;2023-08-24T18:26:34;98433.04;;;27.81;34.67
56825;BME280;42705;50.326;18.772;2023-08-24T18:31:55;98435.48;;;27.49;35.39
56825;BME280;42705;50.326;18.772;2023-08-24T18:37:16;98420.95;;;27.21;36.10
56825;BME280;42705;50.326;18.772;2023-08-24T18:42:38;98411.66;;;26.96;36.69
56825;BME280;42705;50.326;18.772;2023-08-24T18:47:59;98405.96;;;26.71;37.41
56825;BME280;42705;50.326;18.772;2023-08-24T18:53:20;98407.75;;;26.45;38.07
56825;BME280;42705;50.326;18.772;2023-08-24T18:58:42;98405.19;;;26.23;38.68
56825;BME280;42705;50.326;18.772;2023-08-24T19:04:03;98407.17;;;26.01;39.25
56825;BME280;42705;50.326;18.772;2023-08-24T19:09:24;98406.42;;;25.79;39.56
56825;BME280;42705;50.326;18.772;2023-08-24T19:14:45;98390.85;;;25.63;40.19
56825;BME280;42705;50.326;18.772;2023-08-24T19:20:07;98387.34;;;25.50;40.47
56825;BME280;42705;50.326;18.772;2023-08-24T19:25:29;98385.80;;;25.39;40.47
56825;BME280;42705;50.326;18.772;2023-08-24T19:30:50;98389.14;;;25.28;40.70
56825;BME280;42705;50.326;18.772;2023-08-24T19:36:14;98389.77;;;25.17;41.21
56825;BME280;42705;50.326;18.772;2023-08-24T19:41:35;98393.83;;;25.05;41.37
56825;BME280;42705;50.326;18.772;2023-08-24T19:46:57;98390.42;;;24.96;41.70
56825;BME280;42705;50.326;18.772;2023-08-24T19:52:18;98391.41;;;24.85;41.66
56825;BME280;42705;50.326;18.772;2023-08-24T19:57:39;98390.45;;;24.76;41.84
56825;BME280;42705;50.326;18.772;2023-08-24T20:03:00;98379.13;;;24.68;41.98
56825;BME280;42705;50.326;18.772;2023-08-24T20:08:22;98374.45;;;24.60;42.23
56825;BME280;42705;50.326;18.772;2023-08-24T20:13:46;98382.45;;;24.50;42.41
56825;BME280;42705;50.326;18.772;2023-08-24T20:19:07;98380.33;;;24.39;42.78
56825;BME280;42705;50.326;18.772;2023-08-24T20:24:29;98377.59;;;24.30;43.22
56825;BME280;42705;50.326;18.772;2023-08-24T20:29:50;98374.81;;;24.21;43.47
56825;BME280;42705;50.326;18.772;2023-08-24T20:35:12;98380.46;;;24.13;43.64
56825;BME280;42705;50.326;18.772;2023-08-24T20:40:33;98378.24;;;24.06;43.92
56825;BME280;42705;50.326;18.772;2023-08-24T20:45:54;98381.27;;;23.99;44.17
56825;BME280;42705;50.326;18.772;2023-08-24T20:51:15;98380.42;;;23.93;44.55
56825;BME280;42705;50.326;18.772;2023-08-24T20:56:36;98373.35;;;23.86;44.83
56825;BME280;42705;50.326;18.772;2023-08-24T21:01:57;98370.08;;;23.80;45.08
56825;BME280;42705;50.326;18.772;2023-08-24T21:07:19;98370.99;;;23.73;45.39
56825;BME280;42705;50.326;18.772;2023-08-24T21:12:41;98374.00;;;23.67;45.65
56825;BME280;42705;50.326;18.772;2023-08-24T21:18:02;98364.09;;;23.61;45.92
56825;BME280;42705;50.326;18.772;2023-08-24T21:23:24;98357.58;;;23.53;46.15
56825;BME280;42705;50.326;18.772;2023-08-24T21:28:45;98343.67;;;23.45;46.54
56825;BME280;42705;50.326;18.772;2023-08-24T21:34:06;98336.39;;;23.36;46.72
56825;BME280;42705;50.326;18.772;2023-08-24T21:39:28;98326.35;;;23.26;47.01
56825;BME280;42705;50.326;18.772;2023-08-24T21:44:49;98326.36;;;23.18;47.17
56825;BME280;42705;50.326;18.772;2023-08-24T21:50:10;98330.81;;;23.09;47.33
56825;BME280;42705;50.326;18.772;2023-08-24T21:55:36;98334.84;;;22.99;47.57
56825;BME280;42705;50.326;18.772;2023-08-24T22:01:02;98325.30;;;22.93;47.86
56825;BME280;42705;50.326;18.772;2023-08-24T22:06:23;98315.55;;;22.84;48.18
56825;BME280;42705;50.326;18.772;2023-08-24T22:11:44;98309.94;;;22.76;48.55
56825;BME280;42705;50.326;18.772;2023-08-24T22:17:05;98293.48;;;22.68;48.88
56825;BME280;42705;50.326;18.772;2023-08-24T22:22:26;98288.20;;;22.55;49.20
56825;BME280;42705;50.326;18.772;2023-08-24T22:27:48;98284.76;;;22.44;49.51
56825;BME280;42705;50.326;18.772;2023-08-24T22:33:09;98273.66;;;22.36;49.88
56825;BME280;42705;50.326;18.772;2023-08-24T22:38:30;98269.15;;;22.27;49.98
56825;BME280;42705;50.326;18.772;2023-08-24T22:43:53;98256.98;;;22.18;50.18
56825;BME280;42705;50.326;18.772;2023-08-24T22:49:15;98255.65;;;22.09;50.54
56825;BME280;42705;50.326;18.772;2023-08-24T22:54:36;98260.37;;;22.03;50.71
56825;BME280;42705;50.326;18.772;2023-08-24T22:59:58;98273.91;;;21.96;50.98
56825;BME280;42705;50.326;18.772;2023-08-24T23:05:19;98271.50;;;21.90;51.05
56825;BME280;42705;50.326;18.772;2023-08-24T23:10:42;98265.02;;;21.86;50.99
56825;BME280;42705;50.326;18.772;2023-08-24T23:16:04;98263.31;;;21.83;51.16
56825;BME280;42705;50.326;18.772;2023-08-24T23:21:25;98268.16;;;21.78;51.17
56825;BME280;42705;50.326;18.772;2023-08-24T23:26:46;98273.04;;;21.73;51.15
56825;BME280;42705;50.326;18.772;2023-08-24T23:32:08;98282.89;;;21.72;51.09
56825;BME280;42705;50.326;18.772;2023-08-24T23:37:29;98293.34;;;21.68;51.07
56825;BME280;42705;50.326;18.772;2023-08-24T23:42:51;98293.35;;;21.62;51.01
56825;BME280;42705;50.326;18.772;2023-08-24T23:48:12;98284.20;;;21.57;51.17
56825;BME280;42705;50.326;18.772;2023-08-24T23:53:33;98273.97;;;21.52;51.29
56825;BME280;42705;50.326;18.772;2023-08-24T23:58:54;98278.09;;;21.51;51.25
